Time;durP1;ratioP1;P1;durP2;ratioP2;P2;SDS_P1;SDS_P2;PMS_P1;PMS_P2;Temp;Humidity;BMP_temperature;BMP_pressure;BME280_temperature;BME280_humidity;BME280_pressure;Samples;Min_cycle;Max_cycle;Signal;HPM_P1;HPM_P2
2022/12/23 00:00:59;;;;;;;5.15;1.80;;;;;;;24.55;53.07;98657.09;7394118;19;20014;-58
2022/12/23 00:03:26;;;;;;;0.90;0.88;;;;;;;24.31;53.24;98655.31;7396223;19;20015;-58
2022/12/23 00:05:52;;;;;;;0.63;0.63;;;;;;;24.26;53.04;98655.59;7392152;19;20007;-58
2022/12/23 00:08:20;;;;;;;3.40;1.73;;;;;;;24.32;52.65;98656.78;7393279;19;20015;-58
2022/12/23 00:10:47;;;;;;;4.95;1.70;;;;;;;23.75;53.22;98646.13;7394787;19;20018;-58
2022/12/23 00:16:11;;;;;;;2.42;1.27;;;;;;;23.65;53.57;98653.88;7393051;19;20038;-58
2022/12/23 00:18:38;;;;;;;1.40;0.40;;;;;;;23.76;53.07;98658.97;7393815;19;20074;-58
2022/12/23 00:21:10;;;;;;;4.32;0.75;;;;;;;23.73;53.19;98660.19;7392517;19;20010;-58
2022/12/23 00:23:39;;;;;;;1.35;0.82;;;;;;;23.96;52.56;98668.28;7396752;19;20030;-58
2022/12/23 00:26:06;;;;;;;0.80;0.80;;;;;;;23.82;52.57;98664.41;7390443;19;20441;-58
2022/12/23 00:28:32;;;;;;;0.32;0.32;;;;;;;23.67;52.17;98656.88;7391562;19;20030;-58
2022/12/23 00:31:02;;;;;;;0.32;0.32;;;;;;;23.98;52.04;98672.03;7392384;19;20007;-58
2022/12/23 00:33:31;;;;;;;1.20;0.93;;;;;;;23.52;52.64;98662.09;7396512;19;20014;-58
2022/12/23 00:35:57;;;;;;;1.85;0.93;;;;;;;23.50;53.17;98671.19;7392676;19;20091;-58
2022/12/23 00:44:00;;;;;;;0.67;0.57;;;;;;;24.45;51.39;98678.38;7390665;19;20033;-58
2022/12/23 00:46:27;;;;;;;5.80;0.73;;;;;;;24.49;50.99;98675.81;7388696;19;20006;-58
2022/12/23 00:51:38;;;;;;;4.97;2.00;;;;;;;22.59;53.59;98681.03;7395061;19;20096;-58
2022/12/23 00:54:05;;;;;;;1.85;0.88;;;;;;;22.86;53.68;98675.38;7399384;19;20029;-58
2022/12/23 00:56:31;;;;;;;5.13;0.75;;;;;;;24.14;51.91;98668.94;7394465;19;20021;-57
2022/12/23 00:58:59;;;;;;;0.38;0.38;;;;;;;24.21;51.79;98665.22;7394632;19;20467;-58
2022/12/23 01:06:59;;;;;;;0.10;0.10;;;;;;;23.71;51.91;98674.25;7392992;19;20027;-58
2022/12/23 01:09:25;;;;;;;2.83;1.13;;;;;;;23.79;51.49;98660.66;7396140;19;20346;-58
2022/12/23 01:11:52;;;;;;;1.63;0.63;;;;;;;24.36;50.74;98662.06;7397614;19;20010;-58
2022/12/23 01:14:18;;;;;;;1.02;0.25;;;;;;;24.40;50.56;98662.34;7392887;19;20019;-58
2022/12/23 01:16:44;;;;;;;0.77;0.73;;;;;;;24.28;50.64;98652.94;7394050;19;20070;-58
2022/12/23 01:19:11;;;;;;;5.60;1.15;;;;;;;24.18;51.11;98657.84;7396432;19;20098;-58
2022/12/23 01:21:37;;;;;;;0.98;0.98;;;;;;;24.23;50.85;98656.81;7391401;19;20479;-58
2022/12/23 01:24:04;;;;;;;1.40;0.63;;;;;;;24.10;50.85;98653.06;7395106;19;20066;-58
2022/12/23 01:26:30;;;;;;;1.65;0.45;;;;;;;24.55;50.32;98639.25;7387794;19;20084;-58
2022/12/23 01:28:57;;;;;;;4.30;0.90;;;;;;;24.54;50.09;98637.75;7391114;19;20006;-58
2022/12/23 01:31:25;;;;;;;2.38;0.43;;;;;;;22.88;52.25;98640.72;7390833;19;20021;-58
2022/12/23 01:33:53;;;;;;;4.45;0.95;;;;;;;21.92;54.03;98634.34;7394803;19;20458;-58
2022/12/23 01:36:20;;;;;;;2.85;1.13;;;;;;;21.53;55.50;98630.38;7389926;19;20781;-58
2022/12/23 01:38:47;;;;;;;6.32;1.25;;;;;;;21.46;55.89;98638.94;7389430;19;20015;-58
2022/12/23 01:44:49;;;;;;;0.35;0.35;;;;;;;20.98;56.72;98641.94;7391463;19;20032;-58
2022/12/23 01:47:25;;;;;;;0.20;0.20;;;;;;;21.25;56.84;98633.63;7390155;19;20055;-58
2022/12/23 01:49:56;;;;;;;3.05;0.85;;;;;;;20.97;57.83;98636.84;7389232;19;20062;-58
2022/12/23 01:52:23;;;;;;;4.22;0.95;;;;;;;22.65;55.00;98634.63;7390274;19;20015;-58
2022/12/23 01:54:49;;;;;;;4.47;1.50;;;;;;;23.39;53.92;98648.28;7393637;19;20110;-58
2022/12/23 01:57:15;;;;;;;0.80;0.65;;;;;;;23.70;52.82;98655.69;7391155;19;20007;-58
2022/12/23 02:05:15;;;;;;;0.20;0.20;;;;;;;22.97;54.08;98631.50;7389877;19;20017;-58
2022/12/23 02:10:35;;;;;;;7.68;0.40;;;;;;;23.11;53.82;98652.47;7389879;19;20010;-58
2022/12/23 02:13:21;;;;;;;1.33;0.98;;;;;;;23.10;53.29;98668.03;7392447;19;20022;-58
2022/12/23 02:16:17;;;;;;;0.63;0.52;;;;;;;23.19;52.98;98675.84;7389418;19;20015;-58
2022/12/23 02:18:43;;;;;;;3.10;1.23;;;;;;;23.18;53.57;98668.66;7389751;19;20002;-58
2022/12/23 02:21:38;;;;;;;2.60;1.58;;;;;;;23.69;52.59;98662.72;7390591;19;20007;-58
2022/12/23 02:24:18;;;;;;;3.83;1.00;;;;;;;23.50;52.31;98654.13;7394449;19;20015;-58
2022/12/23 02:27:09;;;;;;;0.45;0.30;;;;;;;23.14;52.85;98648.47;7390292;19;20337;-58
2022/12/23 02:29:47;;;;;;;0.32;0.32;;;;;;;22.96;53.65;98635.66;7397250;19;20010;-58
2022/12/23 02:32:28;;;;;;;2.08;1.75;;;;;;;23.25;52.85;98633.69;7398992;19;20019;-58
2022/12/23 02:35:03;;;;;;;4.60;1.55;;;;;;;23.30;52.74;98618.47;7397146;19;20028;-58
2022/12/23 02:37:35;;;;;;;4.65;1.02;;;;;;;23.29;53.04;98616.97;7395655;19;20007;-58
2022/12/23 02:40:04;;;;;;;;;;;;;;;21.95;54.63;98615.41;7396158;19;20046;-58
2022/12/23 02:42:42;;;;;;;2.47;1.85;;;;;;;22.00;55.38;98612.34;7399253;19;19915;-58
2022/12/23 02:45:15;;;;;;;1.67;1.05;;;;;;;22.56;54.49;98601.97;7395247;19;20373;-58
2022/12/23 02:47:48;;;;;;;1.10;0.50;;;;;;;22.01;54.65;98596.81;7395106;19;20078;-58
2022/12/23 02:50:20;;;;;;;0.28;0.20;;;;;;;22.34;54.89;98598.13;7396325;19;20021;-58
2022/12/23 02:52:48;;;;;;;8.68;0.73;;;;;;;22.51;54.62;98609.41;7397285;19;20014;-58
2022/12/23 02:55:21;;;;;;;1.38;0.95;;;;;;;22.72;54.31;98599.72;7395356;19;20014;-58
2022/12/23 02:57:49;;;;;;;1.50;0.68;;;;;;;22.78;53.82;98603.03;7395274;19;20010;-58
2022/12/23 03:00:17;;;;;;;3.60;0.82;;;;;;;23.00;53.59;98614.00;7395178;19;20063;-57
2022/12/23 03:02:44;;;;;;;0.50;0.50;;;;;;;23.05;53.18;98615.09;7397282;19;20014;-57
2022/12/23 03:05:33;;;;;;;0.28;0.28;;;;;;;23.15;52.86;98604.53;7394417;19;20021;-57
2022/12/23 03:08:03;;;;;;;5.30;0.57;;;;;;;23.33;52.70;98612.38;7396159;19;20011;-57
2022/12/23 03:11:04;;;;;;;1.15;0.47;;;;;;;23.00;52.70;98616.84;7399686;19;20006;-58
2022/12/23 03:13:49;;;;;;;0.87;0.87;;;;;;;23.24;52.63;98609.47;7394099;19;20491;-58
2022/12/23 03:16:34;;;;;;;5.47;0.80;;;;;;;23.29;52.26;98612.03;7395963;19;20021;-57
2022/12/23 03:19:03;;;;;;;3.80;1.13;;;;;;;23.22;52.23;98612.16;7397740;19;20006;-57
2022/12/23 03:21:35;;;;;;;1.90;0.98;;;;;;;23.01;52.49;98607.00;7394609;19;20013;-57
2022/12/23 03:24:05;;;;;;;1.05;0.95;;;;;;;22.75;52.85;98615.53;7400347;19;20010;-57
2022/12/23 03:26:56;;;;;;;3.03;0.90;;;;;;;22.45;53.27;98617.44;7392717;19;20031;-57
2022/12/23 03:29:47;;;;;;;1.73;1.10;;;;;;;22.63;52.95;98627.44;7394579;19;20010;-57
2022/12/23 03:32:15;;;;;;;;;;;;;;;22.73;52.74;98629.56;7397047;19;20014;-57
2022/12/23 03:34:45;;;;;;;0.20;0.20;;;;;;;22.77;53.44;98629.91;7394931;19;19915;-57
2022/12/23 03:37:15;;;;;;;1.70;0.88;;;;;;;22.58;53.25;98631.28;7393299;19;20014;-57
2022/12/23 03:39:47;;;;;;;0.45;0.45;;;;;;;22.75;53.23;98627.66;7391847;19;20013;-58
2022/12/23 03:42:23;;;;;;;1.38;1.02;;;;;;;22.45;53.54;98620.28;7392951;19;20086;-58
2022/12/23 03:44:52;;;;;;;3.97;0.85;;;;;;;22.56;53.24;98622.59;7392884;19;20015;-57
2022/12/23 03:47:27;;;;;;;7.43;0.98;;;;;;;22.47;53.23;98617.59;7398136;19;20015;-57
2022/12/23 03:50:01;;;;;;;0.30;0.30;;;;;;;22.49;53.57;98619.84;7394875;19;21607;-57
2022/12/23 03:52:39;;;;;;;0.52;0.50;;;;;;;22.67;53.35;98614.91;7394162;19;20447;-58
2022/12/23 03:55:11;;;;;;;4.10;1.35;;;;;;;22.73;53.05;98604.78;7394054;19;20014;-58
2022/12/23 03:57:43;;;;;;;9.07;1.35;;;;;;;22.65;53.37;98614.75;7394071;19;20557;-57
2022/12/23 04:00:10;;;;;;;6.03;2.50;;;;;;;22.73;52.98;98604.03;7394980;19;20015;-57
2022/12/23 04:03:05;;;;;;;0.45;0.45;;;;;;;22.80;53.13;98594.66;7396029;19;20006;-57
2022/12/23 04:05:36;;;;;;;1.48;0.52;;;;;;;22.96;52.43;98590.22;7393352;19;20507;-57
2022/12/23 04:08:16;;;;;;;0.95;0.65;;;;;;;23.07;52.31;98566.94;7393076;19;20010;-57
2022/12/23 04:10:42;;;;;;;0.20;0.20;;;;;;;23.15;52.62;98561.91;7393352;19;20015;-57
2022/12/23 04:13:08;;;;;;;1.67;1.15;;;;;;;23.19;52.01;98560.13;7395356;19;20007;-58
2022/12/23 04:15:40;;;;;;;6.32;1.25;;;;;;;23.31;51.91;98563.88;7391853;19;20106;-57
2022/12/23 04:18:06;;;;;;;;;;;;;;;23.54;50.89;98563.50;7393531;19;20466;-57
2022/12/23 04:20:32;;;;;;;2.00;0.60;;;;;;;23.38;51.06;98562.28;7393096;19;20324;-57
2022/12/23 04:22:59;;;;;;;7.68;2.17;;;;;;;23.06;51.62;98565.47;7396531;19;20805;-57
2022/12/23 04:25:25;;;;;;;1.88;0.73;;;;;;;23.04;51.52;98554.69;7392432;19;20021;-57
2022/12/23 04:27:51;;;;;;;2.20;1.77;;;;;;;22.72;51.88;98549.34;7397735;19;20023;-57
2022/12/23 04:30:17;;;;;;;3.63;1.25;;;;;;;22.76;51.87;98546.81;7392707;19;20010;-57
2022/12/23 04:32:44;;;;;;;1.60;1.05;;;;;;;22.45;52.33;98554.28;7394538;19;20082;-58
2022/12/23 04:35:11;;;;;;;0.93;0.55;;;;;;;22.59;52.56;98552.56;7392566;19;20019;-57
2022/12/23 04:37:38;;;;;;;4.88;1.55;;;;;;;22.41;53.08;98546.19;7393102;19;20018;-57
2022/12/23 04:40:04;;;;;;;7.65;1.40;;;;;;;22.21;53.07;98538.91;7390467;19;20738;-57
2022/12/23 04:42:30;;;;;;;2.67;1.50;;;;;;;21.47;54.48;98532.78;7395094;19;20476;-57
2022/12/23 04:44:57;;;;;;;6.20;2.15;;;;;;;20.67;56.16;98527.44;7391360;19;20074;-57
2022/12/23 04:47:23;;;;;;;0.98;0.55;;;;;;;19.95;58.81;98529.56;7392727;19;20862;-57
2022/12/23 04:49:49;;;;;;;2.92;0.45;;;;;;;20.75;57.15;98528.13;7393386;19;20040;-57
2022/12/23 04:52:15;;;;;;;1.13;1.02;;;;;;;20.88;56.98;98519.34;7392519;19;20018;-58
2022/12/23 04:54:41;;;;;;;0.57;0.35;;;;;;;21.33;56.15;98511.81;7396469;19;20045;-57
2022/12/23 04:57:07;;;;;;;0.65;0.63;;;;;;;21.66;55.51;98516.69;7392102;19;20019;-57
2022/12/23 04:59:34;;;;;;;1.38;1.13;;;;;;;21.64;55.89;98521.44;7391335;19;20018;-58
2022/12/23 05:02:00;;;;;;;15.60;1.25;;;;;;;22.01;54.98;98517.44;7393486;19;20006;-58
2022/12/23 05:04:26;;;;;;;19.38;1.67;;;;;;;21.92;55.04;98537.22;7392381;19;20006;-58
2022/12/23 05:06:52;;;;;;;1.83;1.73;;;;;;;21.00;56.93;98519.63;7390827;19;20035;-58
2022/12/23 05:09:18;;;;;;;1.55;1.45;;;;;;;20.51;58.27;98523.22;7391594;19;20026;-58
2022/12/23 05:11:45;;;;;;;1.25;0.80;;;;;;;20.33;58.48;98518.84;7391829;19;20006;-58
2022/12/23 05:14:11;;;;;;;0.75;0.75;;;;;;;20.62;58.67;98525.59;7392098;19;20086;-58
2022/12/23 05:16:38;;;;;;;1.65;1.25;;;;;;;21.27;57.53;98514.13;7391525;19;20021;-58
2022/12/23 05:19:04;;;;;;;0.10;0.10;;;;;;;21.48;57.04;98500.31;7389507;19;20530;-58
2022/12/23 05:21:31;;;;;;;0.73;0.73;;;;;;;21.82;56.31;98501.06;7389991;19;20011;-57
2022/12/23 05:23:57;;;;;;;12.63;1.42;;;;;;;21.79;56.55;98507.09;7394172;19;20357;-57
2022/12/23 05:26:23;;;;;;;20.83;2.58;;;;;;;21.52;56.47;98503.47;7388647;19;20017;-57
2022/12/23 05:28:49;;;;;;;3.17;1.15;;;;;;;21.37;56.47;98495.13;7390488;19;20017;-58
2022/12/23 05:31:16;;;;;;;2.55;1.70;;;;;;;21.37;57.16;98500.81;7389968;19;20015;-58
2022/12/23 05:33:42;;;;;;;4.32;1.30;;;;;;;21.30;56.83;98491.06;7394221;19;20063;-58
2022/12/23 05:36:10;;;;;;;1.83;1.50;;;;;;;21.44;57.04;98477.31;7390186;19;20014;-58
2022/12/23 05:38:36;;;;;;;3.20;1.00;;;;;;;21.63;56.54;98480.28;7390183;19;20530;-58
2022/12/23 05:41:02;;;;;;;1.92;1.13;;;;;;;21.73;56.68;98469.75;7391420;19;20488;-58
2022/12/23 05:43:28;;;;;;;0.43;0.43;;;;;;;21.82;56.04;98455.69;7394389;19;20021;-57
2022/12/23 05:45:54;;;;;;;5.03;1.23;;;;;;;21.68;56.44;98445.25;7390035;19;20006;-57
2022/12/23 05:48:21;;;;;;;3.92;1.55;;;;;;;21.74;56.31;98442.94;7390416;19;20818;-58
2022/12/23 05:50:52;;;;;;;2.40;0.93;;;;;;;22.02;55.65;98439.56;7390046;19;20026;-58
2022/12/23 05:53:19;;;;;;;3.90;2.42;;;;;;;22.16;55.61;98437.81;7392107;19;20018;-58
2022/12/23 05:55:45;;;;;;;1.08;0.77;;;;;;;21.92;55.71;98435.91;7389789;19;20466;-57
2022/12/23 05:58:13;;;;;;;9.73;1.95;;;;;;;22.04;55.91;98424.78;7390653;19;20013;-58
2022/12/23 06:00:39;;;;;;;1.42;1.33;;;;;;;21.77;56.43;98413.41;7389436;19;20042;-57
2022/12/23 06:03:05;;;;;;;1.05;0.85;;;;;;;21.81;56.37;98413.72;7392998;19;20014;-58
2022/12/23 06:05:31;;;;;;;0.28;0.28;;;;;;;21.67;55.96;98404.09;7389130;19;20011;-57
2022/12/23 06:07:57;;;;;;;0.40;0.40;;;;;;;21.44;57.10;98403.66;7389845;19;20497;-57
2022/12/23 06:10:23;;;;;;;2.05;1.55;;;;;;;21.25;57.00;98403.50;7389509;19;20066;-57
2022/12/23 06:12:49;;;;;;;3.90;1.85;;;;;;;21.40;56.86;98381.41;7392317;19;20566;-58
2022/12/23 06:15:16;;;;;;;3.65;1.25;;;;;;;21.23;57.20;98389.19;7388525;19;20010;-57
2022/12/23 06:17:42;;;;;;;1.85;1.13;;;;;;;20.82;58.29;98383.00;7389634;19;20031;-57
2022/12/23 06:20:09;;;;;;;3.72;0.88;;;;;;;20.67;58.82;98382.41;7388863;19;20079;-57
2022/12/23 06:22:35;;;;;;;1.05;0.80;;;;;;;20.69;58.99;98372.00;7390491;19;20038;-57
2022/12/23 06:25:01;;;;;;;1.65;1.10;;;;;;;20.85;58.80;98361.28;7388646;19;20081;-58
2022/12/23 06:27:27;;;;;;;2.83;1.05;;;;;;;20.87;58.31;98353.72;7389203;19;20007;-58
2022/12/23 06:29:54;;;;;;;1.45;0.75;;;;;;;20.83;58.60;98341.31;7389311;19;20101;-58
2022/12/23 06:32:20;;;;;;;0.25;0.25;;;;;;;20.69;58.85;98329.56;7389540;19;20037;-57
2022/12/23 06:34:47;;;;;;;0.95;0.50;;;;;;;20.79;58.73;98329.66;7389892;19;20484;-57
2022/12/23 06:37:13;;;;;;;2.20;0.98;;;;;;;21.02;58.38;98333.72;7389738;19;20025;-57
2022/12/23 06:39:40;;;;;;;2.05;0.63;;;;;;;21.36;57.82;98312.34;7388380;19;20621;-57
2022/12/23 06:42:06;;;;;;;0.38;0.38;;;;;;;21.49;57.74;98309.16;7390840;19;20017;-57
2022/12/23 06:44:32;;;;;;;1.02;1.02;;;;;;;21.51;56.98;98300.81;7389502;19;20014;-57
2022/12/23 06:46:58;;;;;;;2.35;1.08;;;;;;;21.66;57.10;98301.34;7388395;19;20049;-57
2022/12/23 06:49:25;;;;;;;3.63;1.30;;;;;;;21.69;57.04;98288.09;7388068;19;20703;-57
2022/12/23 06:51:51;;;;;;;8.68;0.98;;;;;;;21.92;56.45;98285.66;7388069;19;20010;-57
2022/12/23 06:54:17;;;;;;;1.20;1.10;;;;;;;21.61;56.86;98276.13;7390888;19;20479;-57
2022/12/23 06:56:43;;;;;;;0.65;0.65;;;;;;;21.71;57.23;98269.16;7388364;19;20048;-57
2022/12/23 06:59:09;;;;;;;0.65;0.60;;;;;;;21.52;57.22;98257.75;7387888;19;20045;-57
2022/12/23 07:01:35;;;;;;;10.13;1.38;;;;;;;21.44;57.18;98259.22;7388824;19;20106;-57
2022/12/23 07:04:02;;;;;;;0.77;0.77;;;;;;;20.94;57.70;98256.63;7388375;19;20003;-58
2022/12/23 07:06:28;;;;;;;0.75;0.65;;;;;;;20.84;57.87;98258.66;7386561;19;20038;-57
2022/12/23 07:08:54;;;;;;;0.47;0.32;;;;;;;21.65;56.73;98265.09;7391013;19;20017;-57
2022/12/23 07:11:20;;;;;;;1.58;0.68;;;;;;;21.64;56.88;98253.03;7388413;19;20011;-57
2022/12/23 07:13:46;;;;;;;5.55;0.75;;;;;;;21.93;55.90;98260.91;7396576;19;20018;-57
2022/12/23 07:16:13;;;;;;;0.10;0.00;;;;;;;22.10;56.29;98266.47;7395780;19;20018;-57
2022/12/23 07:18:39;;;;;;;1.75;0.65;;;;;;;22.67;55.06;98262.97;7395340;19;20014;-57
2022/12/23 07:21:05;;;;;;;0.73;0.73;;;;;;;22.73;54.51;98260.56;7396913;19;20010;-57
2022/12/23 07:23:31;;;;;;;0.20;0.20;;;;;;;22.73;54.46;98260.56;7397130;19;20063;-57
2022/12/23 07:25:58;;;;;;;1.48;1.15;;;;;;;22.66;54.33;98252.94;7397265;19;20010;-57
2022/12/23 07:28:24;;;;;;;0.57;0.43;;;;;;;22.55;54.51;98257.88;7396347;19;20014;-57
2022/12/23 07:30:50;;;;;;;4.90;1.52;;;;;;;22.75;54.20;98252.22;7397420;19;20311;-57
2022/12/23 07:33:16;;;;;;;0.88;0.88;;;;;;;22.69;54.16;98248.94;7396208;19;20091;-57
2022/12/23 07:35:42;;;;;;;2.65;1.33;;;;;;;21.88;55.21;98252.09;7397563;19;20011;-57
2022/12/23 07:38:09;;;;;;;3.88;2.88;;;;;;;22.07;55.06;98250.66;7397748;19;20033;-57
2022/12/23 07:40:35;;;;;;;1.65;0.32;;;;;;;22.47;54.66;98257.28;7396842;19;20018;-58
2022/12/23 07:43:02;;;;;;;7.43;1.55;;;;;;;22.62;54.61;98250.56;7397452;19;20022;-57
2022/12/23 07:45:29;;;;;;;3.45;1.17;;;;;;;23.15;53.68;98238.13;7395560;19;20006;-58
2022/12/23 07:47:57;;;;;;;2.83;0.60;;;;;;;23.09;53.35;98234.81;7397911;19;20018;-57
2022/12/23 07:50:25;;;;;;;0.47;0.30;;;;;;;23.03;53.40;98231.56;7397366;19;20010;-57
2022/12/23 07:52:52;;;;;;;3.42;1.13;;;;;;;23.13;53.37;98235.13;7398261;19;20010;-57
2022/12/23 07:55:19;;;;;;;0.40;0.40;;;;;;;22.95;53.80;98236.66;7398021;19;20321;-57
2022/12/23 07:57:49;;;;;;;0.98;0.43;;;;;;;22.28;54.54;98231.72;7397084;19;20014;-57
2022/12/23 08:00:16;;;;;;;0.45;0.30;;;;;;;22.69;54.41;98237.56;7394941;19;20106;-57
2022/12/23 08:02:43;;;;;;;0.40;0.40;;;;;;;23.05;53.72;98240.97;7395721;19;20125;-57
2022/12/23 08:05:09;;;;;;;5.78;1.10;;;;;;;23.10;53.51;98230.66;7393403;19;20011;-57
2022/12/23 08:07:36;;;;;;;0.32;0.32;;;;;;;23.20;53.26;98217.16;7393015;19;20010;-57
2022/12/23 08:10:03;;;;;;;0.98;0.52;;;;;;;23.27;52.56;98213.41;7392461;19;20446;-57
2022/12/23 08:12:29;;;;;;;5.60;1.65;;;;;;;23.19;52.78;98210.00;7394210;19;20050;-57
2022/12/23 08:14:55;;;;;;;0.10;0.10;;;;;;;23.16;52.84;98200.59;7391257;19;20492;-57
2022/12/23 08:17:25;;;;;;;6.55;0.80;;;;;;;23.37;52.98;98199.94;7393393;19;20036;-57
2022/12/23 08:19:51;;;;;;;0.90;0.85;;;;;;;22.98;53.15;98198.53;7395748;19;20010;-57
2022/12/23 08:22:17;;;;;;;0.73;0.60;;;;;;;23.20;52.43;98200.88;7396655;19;20010;-57
2022/12/23 08:24:43;;;;;;;1.85;0.95;;;;;;;22.89;52.46;98199.31;7393394;19;20022;-57
2022/12/23 08:27:09;;;;;;;1.02;0.65;;;;;;;22.78;53.09;98199.94;7398419;19;20043;-57
2022/12/23 08:29:37;;;;;;;0.63;0.30;;;;;;;22.56;53.36;98196.19;7397194;19;20029;-57
2022/12/23 08:32:04;;;;;;;0.55;0.55;;;;;;;22.75;52.94;98189.75;7397907;19;20396;-57
2022/12/23 08:34:30;;;;;;;0.30;0.30;;;;;;;22.71;53.28;98180.97;7396147;19;20018;-57
2022/12/23 08:36:56;;;;;;;0.63;0.63;;;;;;;22.77;53.13;98175.72;7395299;19;20376;-57
2022/12/23 08:39:22;;;;;;;16.67;1.42;;;;;;;22.79;52.90;98176.63;7395970;19;20017;-58
2022/12/23 08:41:48;;;;;;;0.63;0.63;;;;;;;22.88;53.07;98170.16;7395774;19;20031;-57
2022/12/23 08:44:15;;;;;;;4.93;1.13;;;;;;;22.91;53.06;98163.31;7395837;19;20003;-57
2022/12/23 08:46:42;;;;;;;1.13;0.40;;;;;;;22.84;53.05;98152.84;7393428;19;20025;-57
2022/12/23 08:49:09;;;;;;;1.75;1.40;;;;;;;22.60;53.17;98146.19;7395609;19;20015;-57
2022/12/23 08:51:37;;;;;;;2.00;0.63;;;;;;;22.55;53.36;98141.53;7395656;19;20030;-57
2022/12/23 08:54:03;;;;;;;0.25;0.25;;;;;;;22.52;53.23;98139.88;7399206;19;20372;-57
2022/12/23 08:56:33;;;;;;;0.38;0.38;;;;;;;22.43;53.39;98132.16;7395606;19;20133;-57
2022/12/23 08:59:00;;;;;;;2.60;0.77;;;;;;;22.16;53.58;98125.13;7395600;19;20007;-57
2022/12/23 09:01:29;;;;;;;0.40;0.40;;;;;;;22.45;53.33;98126.63;7396553;19;20011;-57
2022/12/23 09:03:56;;;;;;;0.38;0.38;;;;;;;22.07;54.06;98120.97;7395247;19;20021;-57
2022/12/23 09:06:27;;;;;;;0.63;0.63;;;;;;;22.24;53.94;98120.78;7393897;19;20015;-57
2022/12/23 09:08:53;;;;;;;;;;;;;;;22.27;53.65;98116.03;7396170;19;20006;-57
2022/12/23 09:11:23;;;;;;;0.63;0.63;;;;;;;22.34;53.64;98110.22;7395666;19;19922;-57
2022/12/23 09:13:49;;;;;;;1.65;1.02;;;;;;;22.75;53.07;98118.81;7398724;19;20416;-57
2022/12/23 09:16:16;;;;;;;2.88;1.60;;;;;;;22.79;52.60;98122.69;7395968;19;20027;-58
2022/12/23 09:18:43;;;;;;;8.45;1.58;;;;;;;22.15;53.41;98123.66;7395704;19;20030;-57
2022/12/23 09:21:12;;;;;;;6.82;1.08;;;;;;;22.20;53.54;98129.00;7391328;19;20340;-58
2022/12/23 09:23:40;;;;;;;0.55;0.55;;;;;;;22.34;53.41;98118.72;7396264;19;20011;-57
2022/12/23 09:26:08;;;;;;;3.45;0.30;;;;;;;22.28;53.50;98121.13;7397588;19;20028;-57
2022/12/23 09:28:34;;;;;;;2.08;0.82;;;;;;;22.47;53.46;98132.44;7392989;19;20466;-57
2022/12/23 09:31:10;;;;;;;0.45;0.28;;;;;;;22.51;52.94;98124.22;7393485;19;20010;-58
2022/12/23 09:33:37;;;;;;;0.55;0.55;;;;;;;21.79;54.11;98136.56;7398197;19;20014;-57
2022/12/23 09:36:05;;;;;;;8.18;1.85;;;;;;;21.73;54.42;98135.38;7391742;19;20359;-57
2022/12/23 09:38:32;;;;;;;2.72;0.73;;;;;;;21.89;54.35;98130.97;7393727;19;20014;-57
2022/12/23 09:41:29;;;;;;;7.25;1.35;;;;;;;21.65;54.77;98132.69;7396742;19;20021;-57
2022/12/23 09:44:32;;;;;;;1.17;0.63;;;;;;;21.13;55.36;98132.25;7394742;19;20022;-58
2022/12/23 09:47:04;;;;;;;6.15;1.00;;;;;;;21.30;55.18;98139.13;7393426;19;20041;-58
2022/12/23 09:49:32;;;;;;;1.13;0.80;;;;;;;21.19;55.62;98131.19;7395218;19;20006;-58
2022/12/23 09:52:08;;;;;;;5.38;0.73;;;;;;;21.26;55.63;98127.50;7394062;19;20046;-58
2022/12/23 09:54:44;;;;;;;0.50;0.50;;;;;;;21.36;55.85;98125.44;7392926;19;20459;-59
2022/12/23 09:57:21;;;;;;;0.77;0.77;;;;;;;21.53;55.34;98128.16;7394173;19;20100;-60
2022/12/23 09:59:50;;;;;;;2.58;0.98;;;;;;;21.66;55.21;98119.25;7395186;19;20011;-61
2022/12/23 10:02:42;;;;;;;10.27;1.15;;;;;;;21.69;54.66;98118.06;7396417;19;20451;-62
2022/12/23 10:05:27;;;;;;;0.20;0.20;;;;;;;21.00;56.06;98117.69;7392701;19;20015;-62
2022/12/23 10:08:01;;;;;;;2.35;0.95;;;;;;;21.34;55.46;98116.78;7393671;19;20018;-62
2022/12/23 10:10:45;;;;;;;1.60;1.00;;;;;;;21.27;55.49;98106.34;7393689;19;20047;-63
2022/12/23 10:13:24;;;;;;;1.95;0.55;;;;;;;21.69;54.88;98118.06;7397836;19;20365;-63
2022/12/23 10:15:51;;;;;;;4.00;0.55;;;;;;;21.77;55.07;98118.66;7394741;19;20019;-63
2022/12/23 10:18:39;;;;;;;1.00;0.95;;;;;;;21.76;54.43;98111.53;7395743;19;20029;-63
2022/12/23 10:21:15;;;;;;;0.10;0.10;;;;;;;21.66;54.90;98119.25;7394428;19;20037;-62
2022/12/23 10:23:45;;;;;;;1.52;0.60;;;;;;;21.55;54.54;98119.84;7396988;19;20092;-61
2022/12/23 10:26:21;;;;;;;1.15;1.02;;;;;;;21.51;55.23;98113.84;7392589;19;20018;-61
2022/12/23 10:28:52;;;;;;;4.75;0.43;;;;;;;21.43;55.26;98113.25;7394211;19;20011;-60
2022/12/23 10:31:25;;;;;;;3.33;1.90;;;;;;;21.30;55.48;98111.56;7394231;19;20455;-60
2022/12/23 10:33:54;;;;;;;1.55;1.35;;;;;;;21.31;55.28;98106.66;7396853;19;20022;-60
2022/12/23 10:36:53;;;;;;;2.03;0.25;;;;;;;20.97;56.03;98108.31;7393957;19;20441;-61
2022/12/23 10:39:38;;;;;;;1.00;0.50;;;;;;;20.62;56.54;98118.25;7396517;19;20006;-62
2022/12/23 10:42:21;;;;;;;0.20;0.20;;;;;;;20.36;56.84;98118.97;7394642;19;20017;-61
2022/12/23 10:45:18;;;;;;;4.53;0.38;;;;;;;20.56;57.13;98106.44;7392969;19;20017;-62
2022/12/23 10:47:56;;;;;;;0.75;0.35;;;;;;;20.77;57.08;98106.72;7397766;19;20476;-62
2022/12/23 10:50:34;;;;;;;1.92;0.47;;;;;;;20.92;57.03;98100.09;7401315;19;20011;-61
2022/12/23 10:53:05;;;;;;;0.43;0.30;;;;;;;20.93;56.48;98101.56;7403922;19;20463;-61
2022/12/23 10:55:34;;;;;;;0.55;0.55;;;;;;;21.24;56.35;98094.13;7402361;19;20014;-62
2022/12/23 10:58:13;;;;;;;0.82;0.38;;;;;;;21.17;56.20;98088.56;7400794;19;20011;-61
2022/12/23 11:00:44;;;;;;;0.32;0.25;;;;;;;21.30;55.95;98082.50;7401144;19;20019;-62
2022/12/23 11:03:19;;;;;;;0.68;0.50;;;;;;;20.97;56.10;98080.00;7403721;19;20015;-62
2022/12/23 11:05:48;;;;;;;0.35;0.35;;;;;;;21.16;56.03;98078.59;7399417;19;20010;-62
2022/12/23 11:08:15;;;;;;;0.30;0.20;;;;;;;21.36;55.92;98074.47;7399447;19;20013;-62
2022/12/23 11:10:41;;;;;;;0.10;0.10;;;;;;;21.36;55.85;98068.81;7400363;19;20066;-62
2022/12/23 11:13:07;;;;;;;0.50;0.50;;;;;;;21.50;55.36;98061.38;7401888;19;20006;-62
2022/12/23 11:15:37;;;;;;;0.25;0.25;;;;;;;21.51;55.50;98063.63;7400318;19;20022;-62
2022/12/23 11:18:17;;;;;;;3.85;1.08;;;;;;;21.05;56.09;98062.94;7400598;19;20033;-62
2022/12/23 11:21:00;;;;;;;1.00;0.45;;;;;;;21.06;56.06;98065.16;7403779;19;20451;-61
2022/12/23 11:23:29;;;;;;;0.43;0.30;;;;;;;21.38;55.35;98060.47;7403250;19;20082;-61
2022/12/23 11:26:02;;;;;;;0.15;0.05;;;;;;;21.20;55.64;98051.34;7402113;19;20027;-60
2022/12/23 11:28:29;;;;;;;0.10;0.00;;;;;;;21.19;55.55;98054.75;7400522;19;20014;-62
2022/12/23 11:30:59;;;;;;;0.20;0.10;;;;;;;20.89;56.20;98048.25;7400704;19;20018;-62
2022/12/23 11:33:36;;;;;;;0.57;0.57;;;;;;;21.14;55.64;98051.63;7401122;19;20007;-62
2022/12/23 11:36:12;;;;;;;0.10;0.00;;;;;;;21.29;55.58;98053.44;7398077;19;20014;-64
2022/12/23 11:39:13;;;;;;;4.82;0.30;;;;;;;21.60;55.65;98042.31;7398401;19;20025;-57
2022/12/23 11:41:49;;;;;;;1.70;0.35;;;;;;;21.84;55.37;98021.47;7392313;19;20535;-56
2022/12/23 11:44:24;;;;;;;0.20;0.10;;;;;;;21.99;55.01;98009.81;7393940;19;20018;-56
2022/12/23 11:46:50;;;;;;;0.10;0.10;;;;;;;22.06;54.82;98008.16;7398760;19;20034;-57
2022/12/23 11:49:22;;;;;;;0.10;0.10;;;;;;;21.91;55.25;97997.88;7399084;19;20355;-57
2022/12/23 11:52:03;;;;;;;0.10;0.00;;;;;;;22.13;54.68;97993.06;7398537;19;20033;-57
2022/12/23 11:54:30;;;;;;;;;;;;;;;22.19;54.55;97987.84;7399524;19;20011;-57
2022/12/23 11:56:57;;;;;;;0.17;0.17;;;;;;;22.24;54.40;97987.50;7398184;19;19915;-57
2022/12/23 11:59:29;;;;;;;0.10;0.10;;;;;;;22.12;54.60;98003.66;7396835;19;20010;-57
2022/12/23 12:01:58;;;;;;;0.32;0.30;;;;;;;22.37;54.17;97995.53;7402304;19;20014;-57
2022/12/23 12:04:27;;;;;;;0.10;0.00;;;;;;;22.77;53.58;97999.75;7397909;19;20367;-57
2022/12/23 12:06:53;;;;;;;0.10;0.10;;;;;;;22.90;53.42;98002.06;7397772;19;20070;-57
2022/12/23 12:09:20;;;;;;;0.30;0.30;;;;;;;22.93;53.05;97995.94;7397784;19;20395;-57
2022/12/23 12:12:12;;;;;;;0.10;0.05;;;;;;;22.66;53.48;97997.53;7396890;19;20007;-57
2022/12/23 12:14:47;;;;;;;;;;;;;;;22.96;53.28;97991.13;7398522;19;20459;-57
2022/12/23 12:17:22;;;;;;;10.82;0.65;;;;;;;23.01;53.16;97992.88;7398190;19;19915;-57